Corpus Christi NAS, Texas
Current Conditions -  °F | °C
As of 3:56 AM on Wednesday 26 Nov 2014 (Local Time) from KNGP Reporting Station
Clear Clear  
Wind Chill: 45°   Ceiling: Unl
Heat Index: 49°   Visibility: 10mi
Dew Point: 44°   Wind: 8mph
Humidity: 83%   Direction: 230°SW
Pressure: 30.24"   Gusts: NA
Location:  27.7°N, 97.28°W
Report Text: KNGP 260956Z AUTO 23007KT 10SM CLR 09/07 A3024 RMK AO2 SLP241 T00940067
Loading
Personal Weather Stations






























Interactive Weather Map New forecast layout! Learn more

10-Day Weather Forecast

Advertisements
Track Severe Weather on mobile